EmailTwitter


Observations de surface / Québec / EGXC

Régions: Québec | Canada | États-Unis | Europe | France | UK | Elsewhere
Station
Affichage
Infos & localisation pour EGXC | Aide pour décoder les METARs

Observations prises le 2017-05-26 à 00H50 UTC à CONINGSBY RAF, UK (EGXC)

Température: 14.0 Celsius

Point de rosée: 12.0 Celsius

Humidité relative: 88%

Vents: Est à 7 km/h ou 4 noeuds.

Pression au niveau moyen de la mer: 102.10 kilopascals.

Observation METAR:

EGXC 260050Z 09004KT CAVOK 14/12 Q1021 BLU=